Time;durP1;ratioP1;P1;durP2;ratioP2;P2;SDS_P1;SDS_P2;PMS_P1;PMS_P2;Temp;Humidity;BMP_temperature;BMP_pressure;BME280_temperature;BME280_humidity;BME280_pressure;Samples;Min_cycle;Max_cycle;Signal;HPM_P1;HPM_P2
2021/08/14 00:01:46;;;;;;;13.10;6.20;;;;;;;22.57;66.08;100691.94;5115258;28;20046;-71
2021/08/14 00:04:14;;;;;;;8.52;6.07;;;;;;;22.68;65.30;100701.72;5097372;28;20051;-71
2021/08/14 00:06:43;;;;;;;10.02;5.65;;;;;;;22.62;65.43;100706.94;5115251;28;20389;-71
2021/08/14 00:09:11;;;;;;;9.27;6.10;;;;;;;22.51;65.73;100708.91;5115469;28;20400;-71
2021/08/14 00:11:39;;;;;;;11.32;5.95;;;;;;;22.60;65.35;100707.09;5115194;28;20043;-71
2021/08/14 00:14:09;;;;;;;10.70;6.18;;;;;;;22.84;64.34;100712.72;5115287;28;20104;-71
2021/08/14 00:16:37;;;;;;;10.27;6.00;;;;;;;22.94;63.20;100709.03;5115124;28;20465;-71
2021/08/14 00:19:05;;;;;;;11.20;5.57;;;;;;;22.89;63.32;100717.69;5115443;28;20036;-71
2021/08/14 00:21:33;;;;;;;11.63;6.65;;;;;;;22.81;63.90;100709.44;5114815;28;20048;-71
2021/08/14 00:24:02;;;;;;;11.85;5.93;;;;;;;22.79;63.44;100712.34;5115487;28;20480;-71
2021/08/14 00:26:30;;;;;;;9.70;5.90;;;;;;;22.77;63.69;100708.91;5114779;28;20410;-71
2021/08/14 00:28:58;;;;;;;8.40;5.80;;;;;;;22.82;63.45;100714.72;5115231;28;20465;-71
2021/08/14 00:31:28;;;;;;;8.10;5.93;;;;;;;22.75;63.91;100710.94;5114820;28;20040;-71
2021/08/14 00:33:57;;;;;;;8.43;5.60;;;;;;;22.72;63.72;100713.13;5115416;28;20071;-71
2021/08/14 00:36:25;;;;;;;8.75;6.15;;;;;;;22.54;64.48;100702.28;5114896;28;20412;-71
2021/08/14 00:38:53;;;;;;;8.85;6.50;;;;;;;22.35;65.49;100711.47;5114995;28;20476;-71
2021/08/14 00:41:22;;;;;;;7.28;5.78;;;;;;;22.31;65.82;100720.97;5114756;28;20039;-71
2021/08/14 00:43:50;;;;;;;12.38;6.30;;;;;;;22.35;65.74;100710.63;5114425;28;20042;-71
2021/08/14 00:46:20;;;;;;;9.32;6.18;;;;;;;22.27;66.31;100706.81;5114348;28;20039;-71
2021/08/14 00:48:49;;;;;;;10.75;6.28;;;;;;;22.52;65.12;100709.75;5114642;28;20047;-71
2021/08/14 00:51:18;;;;;;;12.35;6.28;;;;;;;22.24;65.91;100707.16;5114509;28;20397;-71
2021/08/14 00:53:46;;;;;;;10.48;6.63;;;;;;;22.26;65.96;100702.41;5114257;28;20479;-71
2021/08/14 00:56:14;;;;;;;10.07;5.70;;;;;;;22.28;65.72;100705.81;5114401;28;20039;-71
2021/08/14 00:58:42;;;;;;;10.82;6.43;;;;;;;22.30;65.64;100710.25;5096152;28;20047;-71
2021/08/14 01:01:10;;;;;;;9.07;5.93;;;;;;;22.21;66.15;100706.63;5114534;28;20043;-71
2021/08/14 01:03:39;;;;;;;10.68;6.50;;;;;;;22.12;66.60;100702.97;5114211;28;20047;-71
2021/08/14 01:06:09;;;;;;;12.70;6.53;;;;;;;22.14;66.59;100703.66;5114163;28;20044;-71
2021/08/14 01:08:37;;;;;;;13.57;6.20;;;;;;;22.22;66.21;100701.03;5113938;28;20043;-71
2021/08/14 01:11:05;;;;;;;9.88;5.97;;;;;;;22.23;66.30;100702.72;5114124;28;20071;-71
2021/08/14 01:13:36;;;;;;;10.10;6.20;;;;;;;22.25;66.67;100708.00;5114117;28;20510;-71
2021/08/14 01:16:05;;;;;;;14.10;7.00;;;;;;;22.21;66.66;100696.59;5114194;28;20096;-71
2021/08/14 01:18:34;;;;;;;10.70;6.25;;;;;;;22.02;67.12;100707.59;5113916;28;20471;-71
2021/08/14 01:21:02;;;;;;;9.13;6.10;;;;;;;21.82;67.91;100697.91;5113988;28;20118;-71
2021/08/14 01:23:32;;;;;;;12.13;6.78;;;;;;;21.59;68.87;100703.75;5113729;28;20040;-71
2021/08/14 01:26:02;;;;;;;9.60;6.20;;;;;;;21.74;67.96;100701.38;5114041;28;20107;-71
2021/08/14 01:28:33;;;;;;;11.60;6.80;;;;;;;21.63;68.29;100696.16;5113688;28;20044;-71
2021/08/14 01:31:03;;;;;;;9.77;6.13;;;;;;;21.70;67.82;100692.66;5114339;28;20492;-71
2021/08/14 01:33:32;;;;;;;9.77;6.30;;;;;;;21.74;67.90;100697.81;5095694;28;20050;-71
2021/08/14 01:36:01;;;;;;;8.48;6.03;;;;;;;21.74;67.39;100697.81;5114059;28;20443;-71
2021/08/14 01:38:29;;;;;;;10.10;6.55;;;;;;;21.73;67.69;100701.53;5113512;28;20039;-81
2021/08/14 01:40:58;;;;;;;10.93;6.50;;;;;;;21.85;66.84;100705.72;5113990;28;20073;-71
2021/08/14 01:43:26;;;;;;;9.82;6.10;;;;;;;21.84;66.84;100699.44;5113754;28;20134;-71
2021/08/14 01:45:56;;;;;;;10.30;6.85;;;;;;;21.82;66.97;100706.03;5113833;28;20039;-71
2021/08/14 01:48:25;;;;;;;8.88;6.22;;;;;;;21.93;66.35;100701.22;5113419;28;20067;-71
2021/08/14 01:50:53;;;;;;;9.38;5.80;;;;;;;21.77;67.27;100698.34;5113678;28;20442;-71
2021/08/14 01:53:21;;;;;;;10.15;6.78;;;;;;;21.66;67.69;100690.41;5113660;28;20450;-71
2021/08/14 01:55:50;;;;;;;11.93;6.28;;;;;;;21.43;68.37;100695.44;5113327;28;20036;-71
2021/08/14 01:58:18;;;;;;;11.00;7.25;;;;;;;21.56;67.76;100698.63;5113070;28;20408;-71
2021/08/14 02:00:46;;;;;;;10.73;6.35;;;;;;;21.55;67.82;100691.50;5113448;28;20397;-71
2021/08/14 02:03:15;;;;;;;12.27;6.72;;;;;;;21.56;68.04;100695.91;5113290;28;20481;-71
2021/08/14 02:05:45;;;;;;;9.25;6.40;;;;;;;21.54;67.86;100695.22;5113380;28;20055;-71
2021/08/14 02:08:13;;;;;;;11.18;6.97;;;;;;;21.60;67.81;100691.88;5113521;28;20051;-71
2021/08/14 02:10:41;;;;;;;10.98;6.90;;;;;;;21.61;67.57;100690.84;5113157;28;20071;-71
2021/08/14 02:13:10;;;;;;;9.63;6.55;;;;;;;21.44;68.41;100697.13;5113401;28;20492;-71
2021/08/14 02:15:38;;;;;;;10.77;6.82;;;;;;;21.55;67.45;100680.63;5113067;28;20097;-71
2021/08/14 02:18:06;;;;;;;11.30;6.90;;;;;;;21.50;68.08;100684.81;5113237;28;20044;-71
2021/08/14 02:20:35;;;;;;;11.82;7.20;;;;;;;21.38;68.62;100685.00;5113276;28;20464;-71
2021/08/14 02:23:04;;;;;;;10.63;6.50;;;;;;;21.54;68.02;100675.38;5113447;28;20043;-71
2021/08/14 02:25:32;;;;;;;11.13;6.40;;;;;;;21.54;67.94;100680.78;5112996;28;20051;-78
2021/08/14 02:28:00;;;;;;;10.38;7.00;;;;;;;21.51;68.15;100684.66;5113181;28;20039;-71
2021/08/14 02:30:28;;;;;;;9.23;6.63;;;;;;;21.47;68.18;100683.25;5113404;28;20047;-71
2021/08/14 02:32:56;;;;;;;11.98;6.97;;;;;;;21.50;67.98;100674.78;5113164;28;20502;-71
2021/08/14 02:35:27;;;;;;;9.68;6.78;;;;;;;21.41;68.45;100678.41;5113092;28;20051;-71
2021/08/14 02:37:56;;;;;;;9.65;6.40;;;;;;;21.39;68.41;100675.00;5113186;28;20075;-71
2021/08/14 02:40:25;;;;;;;9.45;6.75;;;;;;;21.51;68.41;100676.50;5113059;28;20080;-71
2021/08/14 02:42:53;;;;;;;9.93;6.53;;;;;;;21.71;67.22;100678.09;5112789;28;20051;-71
2021/08/14 02:45:21;;;;;;;12.80;7.03;;;;;;;21.49;67.92;100678.53;5113205;28;20484;-71
2021/08/14 02:47:50;;;;;;;13.05;7.05;;;;;;;21.41;67.98;100678.41;5112625;28;20439;-71
2021/08/14 02:50:18;;;;;;;11.07;6.68;;;;;;;21.28;68.71;100675.22;5113159;28;20438;-71
2021/08/14 02:52:46;;;;;;;9.55;6.28;;;;;;;21.30;68.62;100675.91;5094885;28;20100;-72
2021/08/14 02:55:16;;;;;;;11.02;7.20;;;;;;;21.06;69.44;100677.31;5113022;28;20097;-71
2021/08/14 02:57:45;;;;;;;11.75;7.20;;;;;;;21.13;69.16;100678.41;5112888;28;20480;-71
2021/08/14 03:00:14;;;;;;;10.43;7.15;;;;;;;21.14;68.99;100669.28;5113009;28;20381;-71
2021/08/14 03:02:42;;;;;;;9.68;7.10;;;;;;;21.07;69.28;100684.44;5112531;28;20085;-71
2021/08/14 03:05:11;;;;;;;9.00;6.70;;;;;;;21.04;68.76;100676.59;5112935;28;20401;-71
2021/08/14 03:07:42;;;;;;;10.68;6.80;;;;;;;20.88;69.87;100684.50;5112463;28;20046;-72
2021/08/14 03:10:11;;;;;;;10.80;7.00;;;;;;;20.90;70.04;100681.63;5114137;28;20045;-71
2021/08/14 03:12:43;;;;;;;12.05;7.22;;;;;;;21.05;69.09;100677.47;5116277;28;20046;-71
2021/08/14 03:15:13;;;;;;;9.07;6.90;;;;;;;20.90;69.56;100676.22;5116690;28;20048;-71
2021/08/14 03:17:41;;;;;;;12.07;7.28;;;;;;;20.95;69.37;100674.78;5116197;28;20047;-71
2021/08/14 03:20:11;;;;;;;13.07;7.07;;;;;;;20.83;69.54;100667.81;5116432;28;20043;-72
2021/08/14 03:22:39;;;;;;;10.15;6.63;;;;;;;20.89;68.99;100672.66;5116015;28;20070;-72
2021/08/14 03:25:09;;;;;;;9.93;6.38;;;;;;;20.74;69.22;100676.84;5116363;28;20118;-71
2021/08/14 03:27:37;;;;;;;12.35;6.47;;;;;;;20.93;68.92;100682.19;5115967;28;20044;-72
2021/08/14 03:30:08;;;;;;;9.90;7.10;;;;;;;20.89;68.73;100690.78;5116227;28;20039;-71
2021/08/14 03:32:37;;;;;;;10.30;7.03;;;;;;;20.88;68.73;100694.50;5115993;28;20097;-72
2021/08/14 03:35:06;;;;;;;10.88;7.07;;;;;;;20.88;69.10;100698.06;5116128;28;20105;-71
2021/08/14 03:37:35;;;;;;;12.55;7.18;;;;;;;20.94;68.91;100704.72;5115989;28;20040;-72
2021/08/14 03:40:03;;;;;;;11.93;6.85;;;;;;;20.89;68.96;100704.34;5116116;28;20051;-72
2021/08/14 03:42:32;;;;;;;10.88;6.82;;;;;;;20.88;69.05;100706.19;5115940;28;20044;-71
2021/08/14 03:45:00;;;;;;;10.77;7.30;;;;;;;21.13;68.44;100710.09;5115626;28;20040;-73
2021/08/14 03:47:29;;;;;;;9.63;6.70;;;;;;;21.00;68.72;100710.44;5116096;28;20369;-73
2021/08/14 03:49:58;;;;;;;9.32;6.85;;;;;;;20.96;69.36;100709.03;5115412;28;20039;-72
2021/08/14 03:52:26;;;;;;;9.07;6.80;;;;;;;20.98;68.96;100715.16;5115865;28;20050;-71
2021/08/14 03:54:54;;;;;;;11.25;6.68;;;;;;;21.20;68.55;100727.47;5115368;28;20112;-73
2021/08/14 03:57:23;;;;;;;12.60;7.53;;;;;;;21.11;68.73;100717.53;5115543;28;20047;-73
2021/08/14 03:59:51;;;;;;;12.10;7.68;;;;;;;21.13;68.81;100727.25;5115367;28;20043;-73
2021/08/14 04:02:19;;;;;;;9.32;6.97;;;;;;;21.13;68.54;100721.81;5115337;28;20047;-72
2021/08/14 04:04:49;;;;;;;10.80;8.38;;;;;;;21.09;68.76;100714.97;5115328;28;20373;-73
2021/08/14 04:07:17;;;;;;;10.63;8.00;;;;;;;21.06;69.14;100717.97;5115604;28;20071;-72
2021/08/14 04:09:45;;;;;;;10.18;7.47;;;;;;;21.25;68.54;100716.19;5115066;28;20553;-73
2021/08/14 04:12:13;;;;;;;12.18;7.53;;;;;;;21.34;68.44;100715.31;5115480;28;20431;-72
2021/08/14 04:14:42;;;;;;;11.23;7.63;;;;;;;21.39;68.11;100715.72;5115276;28;20430;-73
2021/08/14 04:17:32;;;;;;;10.80;7.70;;;;;;;21.57;67.29;100716.63;5115644;28;20093;-72
2021/08/14 04:20:02;;;;;;;9.07;7.25;;;;;;;21.59;67.45;100713.75;5114944;28;20040;-72
2021/08/14 04:22:30;;;;;;;11.70;8.10;;;;;;;21.64;67.33;100719.59;5115280;28;20119;-73
2021/08/14 04:24:58;;;;;;;11.65;8.30;;;;;;;21.77;66.62;100724.63;5115026;28;20529;-72
2021/08/14 04:27:26;;;;;;;11.75;8.40;;;;;;;21.88;66.32;100721.69;5114858;28;20511;-71
2021/08/14 04:29:55;;;;;;;10.82;8.05;;;;;;;21.99;66.01;100721.47;5114831;28;20112;-73
2021/08/14 04:32:23;;;;;;;12.23;8.13;;;;;;;22.41;64.57;100727.16;5115108;28;20047;-70
2021/08/14 04:34:51;;;;;;;11.82;8.00;;;;;;;22.66;63.33;100719.19;5114421;28;20492;-73
2021/08/14 04:37:21;;;;;;;10.00;7.60;;;;;;;22.64;63.60;100724.78;5115059;28;20042;-72
2021/08/14 04:39:49;;;;;;;10.00;7.30;;;;;;;22.72;63.44;100733.00;5114688;28;20048;-72
2021/08/14 04:42:17;;;;;;;11.63;8.07;;;;;;;22.69;63.54;100733.34;5115049;28;20039;-71
2021/08/14 04:44:45;;;;;;;10.32;7.68;;;;;;;22.90;62.67;100735.72;5096209;28;20100;-73
2021/08/14 04:47:13;;;;;;;12.38;7.50;;;;;;;22.98;62.93;100738.50;5114675;28;20055;-71
2021/08/14 04:49:43;;;;;;;12.52;7.85;;;;;;;23.30;61.67;100740.53;5114278;28;20122;-72
2021/08/14 04:52:12;;;;;;;12.07;7.55;;;;;;;23.53;60.70;100737.22;5114687;28;20043;-72
2021/08/14 04:54:41;;;;;;;10.35;7.15;;;;;;;23.40;60.93;100741.25;5114695;28;20043;-71
2021/08/14 04:57:09;;;;;;;12.75;7.57;;;;;;;23.44;61.04;100736.31;5114721;28;20432;-72
2021/08/14 04:59:38;;;;;;;9.70;7.10;;;;;;;23.36;60.95;100742.63;5114272;28;20039;-71
2021/08/14 05:02:06;;;;;;;9.35;7.07;;;;;;;23.36;61.19;100737.16;5113996;28;20046;-72
2021/08/14 05:04:35;;;;;;;10.50;7.22;;;;;;;23.27;61.64;100740.00;5096212;28;20055;-72
2021/08/14 05:07:04;;;;;;;9.73;7.15;;;;;;;23.32;61.44;100735.78;5114233;28;20047;-72
2021/08/14 05:09:38;;;;;;;13.35;7.30;;;;;;;23.43;61.06;100738.19;5114212;28;20369;-71
2021/08/14 05:12:08;;;;;;;13.10;7.22;;;;;;;23.45;60.67;100750.78;5114050;28;20088;-71
2021/08/14 05:14:38;;;;;;;9.68;6.50;;;;;;;23.65;59.88;100742.25;5114297;28;20032;-71
2021/08/14 05:17:07;;;;;;;11.60;6.95;;;;;;;23.49;60.98;100744.03;5113775;28;20051;-72
2021/08/14 05:19:35;;;;;;;10.55;6.90;;;;;;;23.47;60.62;100746.06;5114100;28;20122;-72
2021/08/14 05:22:04;;;;;;;11.38;7.10;;;;;;;23.73;59.67;100746.00;5114012;28;20055;-72
2021/08/14 05:24:32;;;;;;;10.65;7.38;;;;;;;23.77;59.71;100747.38;5113952;28;20036;-72
2021/08/14 05:27:00;;;;;;;10.75;6.63;;;;;;;23.97;58.55;100749.66;5113677;28;20088;-72
2021/08/14 05:29:30;;;;;;;9.48;6.45;;;;;;;24.12;57.82;100743.53;5114012;28;20051;-72
2021/08/14 05:31:59;;;;;;;8.38;5.97;;;;;;;24.36;56.83;100753.66;5113187;28;20048;-72
2021/08/14 05:34:29;;;;;;;11.50;6.05;;;;;;;24.55;55.54;100756.91;5113669;28;20143;-72
2021/08/14 05:36:57;;;;;;;9.55;5.82;;;;;;;25.05;53.64;100761.31;5113454;28;20100;-72
2021/08/14 05:39:27;;;;;;;6.93;5.70;;;;;;;25.10;52.93;100756.19;5113716;28;20043;-73
2021/08/14 05:41:56;;;;;;;10.70;5.50;;;;;;;25.22;52.80;100751.19;5113636;28;20078;-72
2021/08/14 05:44:24;;;;;;;9.18;5.63;;;;;;;25.33;51.99;100744.50;5095575;28;20048;-72
2021/08/14 05:46:54;;;;;;;10.48;5.80;;;;;;;25.31;51.68;100741.97;5113482;28;20400;-72
2021/08/14 05:49:22;;;;;;;9.90;5.95;;;;;;;25.48;51.72;100742.75;5113616;28;20040;-72
2021/08/14 05:51:50;;;;;;;7.63;5.70;;;;;;;25.51;50.69;100747.00;5113546;28;20404;-72
2021/08/14 05:54:18;;;;;;;9.95;5.88;;;;;;;25.37;51.57;100743.13;5095505;28;20063;-72
2021/08/14 05:56:47;;;;;;;11.25;6.10;;;;;;;25.79;50.43;100744.69;5113140;28;20391;-73
2021/08/14 05:59:15;;;;;;;8.45;6.25;;;;;;;26.01;50.39;100743.84;5095344;28;20081;-72
2021/08/14 06:01:43;;;;;;;9.85;5.70;;;;;;;26.17;48.87;100743.75;5113596;28;20434;-71
2021/08/14 06:04:13;;;;;;;11.38;6.30;;;;;;;26.40;48.81;100749.25;5113490;28;20043;-72
2021/08/14 06:06:43;;;;;;;9.27;5.95;;;;;;;26.47;47.54;100750.22;5113409;28;20035;-73
2021/08/14 06:09:12;;;;;;;9.25;5.20;;;;;;;26.91;46.39;100757.69;5113654;28;20036;-73
2021/08/14 06:11:40;;;;;;;8.93;5.55;;;;;;;26.99;45.01;100751.28;5113748;28;20039;-72
2021/08/14 06:14:09;;;;;;;7.15;4.95;;;;;;;27.21;44.96;100764.06;5113146;28;20044;-72
2021/08/14 06:16:38;;;;;;;7.78;5.07;;;;;;;27.36;44.67;100759.44;5113579;28;20074;-72
2021/08/14 06:19:06;;;;;;;10.48;5.57;;;;;;;27.07;44.81;100756.69;5113109;28;20048;-73
2021/08/14 06:21:38;;;;;;;7.43;5.10;;;;;;;26.90;45.02;100755.97;5113491;28;20077;-72
2021/08/14 06:24:06;;;;;;;8.60;5.00;;;;;;;26.85;45.18;100752.13;5113341;28;20110;-72
2021/08/14 06:26:34;;;;;;;8.65;5.03;;;;;;;26.89;45.30;100753.44;5113472;28;20119;-72
2021/08/14 06:29:02;;;;;;;10.02;5.57;;;;;;;27.30;45.07;100757.44;5113117;28;20127;-72
2021/08/14 06:31:31;;;;;;;8.02;5.28;;;;;;;27.91;43.34;100760.84;5113054;28;20036;-74
2021/08/14 06:33:59;;;;;;;8.98;4.95;;;;;;;28.34;41.85;100760.03;5112904;28;20488;-73
2021/08/14 06:36:27;;;;;;;11.38;5.45;;;;;;;28.33;42.87;100764.69;5112763;28;20492;-73
2021/08/14 06:38:57;;;;;;;8.00;4.60;;;;;;;28.17;42.98;100763.00;5112988;28;20067;-73
2021/08/14 06:41:25;;;;;;;11.88;5.22;;;;;;;28.56;41.87;100761.72;5113459;28;20048;-73
2021/08/14 06:43:53;;;;;;;8.20;5.15;;;;;;;28.81;41.18;100756.66;5096151;28;20400;-73
2021/08/14 06:46:22;;;;;;;8.63;5.00;;;;;;;28.83;40.89;100765.56;5116983;28;20047;-73
2021/08/14 06:48:50;;;;;;;8.55;5.18;;;;;;;28.58;42.33;100758.81;5116955;28;20039;-71
2021/08/14 06:51:18;;;;;;;8.77;4.40;;;;;;;29.17;40.68;100751.06;5117020;28;20048;-71
2021/08/14 06:53:48;;;;;;;10.20;5.10;;;;;;;29.16;41.33;100749.38;5116932;28;20053;-70
2021/08/14 06:56:17;;;;;;;9.10;4.93;;;;;;;29.15;41.51;100753.16;5116972;28;20126;-73
2021/08/14 06:58:45;;;;;;;10.10;5.50;;;;;;;28.74;41.58;100750.28;5116839;28;20443;-73
2021/08/14 07:01:14;;;;;;;9.75;5.03;;;;;;;28.63;41.49;100748.06;5116411;28;20047;-73
2021/08/14 07:03:43;;;;;;;8.73;5.47;;;;;;;28.10;43.18;100755.78;5116872;28;20048;-72
2021/08/14 07:06:19;;;;;;;9.18;4.80;;;;;;;27.91;44.02;100744.38;5116570;28;20047;-73
2021/08/14 07:08:47;;;;;;;9.30;5.35;;;;;;;27.42;45.42;100754.25;5116773;28;20057;-72
2021/08/14 07:11:19;;;;;;;9.88;5.70;;;;;;;27.33;46.10;100753.50;5098262;28;20408;-72
2021/08/14 07:13:51;;;;;;;7.75;5.78;;;;;;;27.39;45.02;100755.47;5116441;28;20039;-82
2021/08/14 07:16:20;;;;;;;10.68;5.50;;;;;;;27.31;46.09;100755.56;5116701;28;20055;-72
2021/08/14 07:18:49;;;;;;;7.07;5.20;;;;;;;27.32;45.90;100765.50;5116143;28;20050;-72
2021/08/14 07:21:17;;;;;;;9.43;5.25;;;;;;;26.90;46.01;100760.59;5116010;28;20070;-72
2021/08/14 07:23:45;;;;;;;8.65;5.40;;;;;;;26.84;46.66;100755.91;5116248;28;20047;-72
2021/08/14 07:26:13;;;;;;;9.02;5.55;;;;;;;26.96;47.02;100751.66;5115921;28;20035;-72
2021/08/14 07:28:43;;;;;;;7.88;5.05;;;;;;;27.14;46.28;100760.41;5116268;28;20553;-72
2021/08/14 07:31:11;;;;;;;8.60;5.20;;;;;;;27.07;46.18;100756.69;5097527;28;20055;-72
2021/08/14 07:33:39;;;;;;;10.45;5.70;;;;;;;26.88;46.70;100757.22;5115931;28;20047;-72
2021/08/14 07:36:08;;;;;;;9.55;5.55;;;;;;;26.77;47.48;100753.88;5116094;28;20503;-73
2021/08/14 07:38:36;;;;;;;8.95;5.45;;;;;;;26.84;47.21;100754.00;5115836;28;20545;-72
2021/08/14 07:41:04;;;;;;;8.75;5.43;;;;;;;26.74;48.02;100757.00;5115899;28;20051;-72
2021/08/14 07:43:33;;;;;;;10.57;5.75;;;;;;;26.88;47.98;100752.59;5116041;28;20477;-72
2021/08/14 07:46:02;;;;;;;8.32;5.65;;;;;;;26.98;46.87;100755.06;5115788;28;20480;-72
2021/08/14 07:48:31;;;;;;;8.80;5.50;;;;;;;26.93;46.78;100755.63;5115877;28;20039;-72
2021/08/14 07:50:59;;;;;;;8.52;5.20;;;;;;;26.98;47.41;100760.53;5115411;28;20088;-72
2021/08/14 07:53:27;;;;;;;8.68;5.05;;;;;;;27.14;47.23;100760.41;5116127;28;20484;-72
2021/08/14 07:55:55;;;;;;;9.32;5.50;;;;;;;27.25;46.46;100756.34;5114694;28;20476;-73
2021/08/14 07:58:24;;;;;;;8.77;5.32;;;;;;;27.26;46.55;100756.16;5115561;28;20454;-72
2021/08/14 08:00:52;;;;;;;9.20;5.40;;;;;;;27.27;46.05;100757.00;5115595;28;20054;-72
2021/08/14 08:03:22;;;;;;;8.30;4.93;;;;;;;27.20;46.94;100756.88;5115791;28;20120;-72
2021/08/14 08:05:50;;;;;;;8.43;5.20;;;;;;;27.38;47.18;100751.88;5097792;28;20453;-72
2021/08/14 08:08:18;;;;;;;10.77;5.30;;;;;;;27.38;45.71;100754.63;5115410;28;20130;-72
2021/08/14 08:10:47;;;;;;;8.55;5.30;;;;;;;27.44;46.01;100760.41;5115490;28;20039;-72
2021/08/14 08:13:15;;;;;;;9.68;5.50;;;;;;;27.39;46.73;100750.84;5115185;28;20051;-72
2021/08/14 08:15:44;;;;;;;10.57;5.43;;;;;;;27.48;45.93;100753.50;5115531;28;20123;-73
2021/08/14 08:18:12;;;;;;;9.60;5.72;;;;;;;27.74;45.94;100758.50;5115197;28;20040;-73
2021/08/14 08:20:42;;;;;;;10.25;6.00;;;;;;;27.67;45.30;100752.94;5115391;28;20048;-72
2021/08/14 08:23:10;;;;;;;10.82;5.90;;;;;;;27.61;45.49;100748.19;5115262;28;20043;-72
2021/08/14 08:25:38;;;;;;;11.15;5.43;;;;;;;27.68;45.65;100749.13;5115015;28;20632;-72
2021/08/14 08:28:06;;;;;;;8.93;5.35;;;;;;;27.83;45.85;100744.50;5115004;28;20032;-72
2021/08/14 08:30:34;;;;;;;6.82;4.80;;;;;;;28.09;44.68;100741.22;5114893;28;20043;-72
2021/08/14 08:33:03;;;;;;;9.27;5.63;;;;;;;27.89;44.67;100741.00;5115057;28;20437;-73
2021/08/14 08:35:32;;;;;;;10.00;5.50;;;;;;;27.85;45.28;100747.88;5115048;28;20055;-72
2021/08/14 08:38:01;;;;;;;9.55;5.25;;;;;;;28.00;45.01;100741.53;5114716;28;20035;-73
2021/08/14 08:40:33;;;;;;;8.93;5.55;;;;;;;28.01;44.13;100737.75;5114888;28;20051;-72
2021/08/14 08:43:02;;;;;;;11.70;5.37;;;;;;;27.91;45.17;100736.16;5114537;28;20133;-72
2021/08/14 08:45:31;;;;;;;9.05;4.88;;;;;;;27.98;44.74;100732.63;5114744;28;20065;-72
2021/08/14 08:48:01;;;;;;;9.50;5.35;;;;;;;28.12;44.22;100734.47;5114413;28;20044;-72
2021/08/14 08:50:30;;;;;;;8.07;4.72;;;;;;;28.22;44.16;100733.09;5114751;28;20051;-72
2021/08/14 08:53:01;;;;;;;9.57;5.40;;;;;;;28.26;42.67;100729.97;5114224;28;20090;-73
2021/08/14 08:55:34;;;;;;;8.70;5.38;;;;;;;28.16;43.21;100724.81;5114495;28;20044;-72
2021/08/14 08:58:02;;;;;;;9.50;5.30;;;;;;;28.19;43.33;100724.44;5114530;28;20036;-73
2021/08/14 09:00:30;;;;;;;9.82;5.22;;;;;;;28.50;43.40;100726.88;5114903;28;20036;-72
2021/08/14 09:03:13;;;;;;;7.40;5.13;;;;;;;28.61;43.52;100711.75;5114102;28;20035;-76
2021/08/14 09:05:51;;;;;;;10.38;5.43;;;;;;;28.66;43.18;100709.25;5114295;28;20035;-72
2021/08/14 09:08:20;;;;;;;10.10;4.93;;;;;;;28.70;43.03;100705.06;5114462;28;20039;-72
2021/08/14 09:10:51;;;;;;;8.40;5.13;;;;;;;28.79;42.18;100709.38;5114194;28;20050;-72
2021/08/14 09:13:21;;;;;;;11.15;5.78;;;;;;;28.86;41.82;100703.94;5114172;28;20087;-72
2021/08/14 09:15:49;;;;;;;8.55;5.40;;;;;;;28.87;42.58;100709.22;5114258;28;20085;-72
2021/08/14 09:18:18;;;;;;;8.10;5.20;;;;;;;28.91;41.49;100704.19;5113854;28;20040;-72
2021/08/14 09:20:49;;;;;;;9.00;4.75;;;;;;;28.83;41.54;100693.31;5114001;28;20071;-72
2021/08/14 09:23:21;;;;;;;10.20;4.95;;;;;;;28.83;41.94;100696.91;5114022;28;20044;-72
2021/08/14 09:25:52;;;;;;;9.52;4.95;;;;;;;28.90;41.00;100697.84;5096149;28;20385;-72
2021/08/14 09:28:30;;;;;;;9.45;5.07;;;;;;;29.01;40.64;100690.94;5113604;28;20490;-73
2021/08/14 09:31:00;;;;;;;9.65;4.93;;;;;;;29.15;41.40;100692.75;5113650;28;20454;-72
2021/08/14 09:33:30;;;;;;;9.15;5.05;;;;;;;29.36;41.15;100686.28;5114246;28;20373;-72
2021/08/14 09:36:04;;;;;;;10.27;5.40;;;;;;;29.25;40.62;100686.88;5113249;28;20047;-73
2021/08/14 09:38:42;;;;;;;8.38;5.10;;;;;;;29.26;40.96;100686.66;5113820;28;20039;-72
2021/08/14 09:41:13;;;;;;;8.68;5.47;;;;;;;29.14;40.89;100691.00;5113579;28;20043;-73
2021/08/14 09:43:43;;;;;;;9.77;5.05;;;;;;;29.32;41.44;100676.75;5113762;28;20389;-72
2021/08/14 09:46:12;;;;;;;6.75;5.15;;;;;;;29.36;40.96;100678.03;5113496;28;20067;-72
2021/08/14 09:48:41;;;;;;;9.50;5.15;;;;;;;29.50;40.62;100679.81;5113767;28;20043;-72
2021/08/14 09:51:28;;;;;;;8.77;5.63;;;;;;;29.53;40.77;100678.53;5095241;28;20047;-73
2021/08/14 09:53:57;;;;;;;8.05;5.10;;;;;;;29.65;40.59;100676.91;5113566;28;20052;-72
2021/08/14 09:56:31;;;;;;;7.65;5.43;;;;;;;29.54;40.54;100675.63;5113374;28;20050;-72
2021/08/14 09:59:01;;;;;;;7.30;5.15;;;;;;;29.61;40.85;100673.72;5113863;28;20146;-72
2021/08/14 10:01:32;;;;;;;7.05;5.10;;;;;;;29.68;40.69;100667.41;5113435;28;20077;-73
2021/08/14 10:04:02;;;;;;;9.57;5.22;;;;;;;29.73;40.33;100660.25;5113502;28;20045;-72
2021/08/14 10:06:30;;;;;;;7.70;4.97;;;;;;;29.85;40.32;100657.72;5113581;28;20036;-72
2021/08/14 10:08:59;;;;;;;10.98;5.28;;;;;;;29.73;40.21;100656.66;5113678;28;20040;-72
2021/08/14 10:11:29;;;;;;;7.25;4.90;;;;;;;29.80;40.38;100652.84;5113589;28;20078;-72
2021/08/14 10:13:57;;;;;;;9.25;4.97;;;;;;;29.82;40.53;100644.38;5113501;28;20043;-72
2021/08/14 10:16:26;;;;;;;8.77;5.43;;;;;;;29.88;40.14;100643.56;5113097;28;20044;-72
2021/08/14 10:18:56;;;;;;;8.32;5.22;;;;;;;30.10;39.92;100653.34;5114347;28;20047;-73
2021/08/14 10:21:26;;;;;;;7.78;5.22;;;;;;;30.11;40.10;100644.06;5117724;28;20105;-73
2021/08/14 10:23:57;;;;;;;8.55;5.30;;;;;;;30.03;40.17;100640.63;5117760;28;20081;-73
2021/08/14 10:26:30;;;;;;;8.43;5.53;;;;;;;30.27;39.28;100636.41;5117451;28;20036;-73
2021/08/14 10:28:59;;;;;;;;;;;;;;;30.30;39.34;100633.25;5117802;28;20047;-72
2021/08/14 10:31:54;;;;;;;9.02;5.47;;;;;;;30.27;39.53;100630.91;5116879;28;19962;-73
2021/08/14 10:34:31;;;;;;;8.18;5.60;;;;;;;30.40;39.05;100628.16;5069678;28;20052;-73
2021/08/14 10:37:00;;;;;;;8.00;5.30;;;;;;;30.48;39.29;100622.44;5076714;28;20119;-73
2021/08/14 10:39:31;;;;;;;7.15;5.10;;;;;;;30.47;39.29;100626.25;5076468;28;20068;-70
2021/08/14 10:42:03;;;;;;;9.80;5.63;;;;;;;30.55;39.45;100619.69;5076625;28;20037;-72
2021/08/14 10:44:45;;;;;;;7.20;5.07;;;;;;;30.64;39.14;100622.03;5076436;28;20382;-71
2021/08/14 10:47:41;;;;;;;10.32;5.35;;;;;;;30.65;39.11;100615.47;5075288;28;20080;-71
2021/08/14 10:50:37;;;;;;;8.13;5.40;;;;;;;30.70;39.07;100615.66;5076052;28;20044;-71
2021/08/14 10:53:17;;;;;;;8.30;5.25;;;;;;;30.77;38.99;100610.97;5074473;28;20101;-71
2021/08/14 10:55:48;;;;;;;9.65;5.25;;;;;;;30.89;39.08;100607.59;5076275;28;20044;-71
2021/08/14 10:58:20;;;;;;;10.02;5.35;;;;;;;31.22;37.84;100602.81;5075013;28;20052;-71
2021/08/14 11:00:48;;;;;;;11.30;4.90;;;;;;;31.27;38.01;100602.16;5076318;28;20143;-71
2021/08/14 11:03:20;;;;;;;7.30;5.20;;;;;;;31.36;38.06;100605.50;5075722;28;20436;-71
2021/08/14 11:05:49;;;;;;;8.57;5.05;;;;;;;31.48;37.32;100588.06;5076348;28;20037;-71
2021/08/14 11:08:32;;;;;;;8.45;5.20;;;;;;;31.31;36.97;100593.22;5075690;28;20076;-71
2021/08/14 11:11:03;;;;;;;12.32;5.65;;;;;;;31.47;36.82;100583.59;5075897;28;20037;-70
2021/08/14 11:13:43;;;;;;;7.22;5.15;;;;;;;31.44;36.94;100585.94;5075855;28;20508;-71
2021/08/14 11:16:11;;;;;;;11.43;6.68;;;;;;;31.52;37.10;100588.44;5075612;28;20037;-71
2021/08/14 11:18:54;;;;;;;8.00;5.00;;;;;;;31.52;36.94;100580.19;5075707;28;20044;-71
2021/08/14 11:21:45;;;;;;;8.07;5.07;;;;;;;31.56;37.05;100584.19;5075631;28;20493;-71
2021/08/14 11:24:37;;;;;;;8.32;5.68;;;;;;;31.65;36.43;100569.03;5075451;28;20044;-71
2021/08/14 11:27:20;;;;;;;10.98;5.40;;;;;;;31.61;36.62;100565.06;5075795;28;20527;-71
2021/08/14 11:29:51;;;;;;;9.02;5.32;;;;;;;31.59;36.73;100564.44;5075369;28;20040;-71
2021/08/14 11:32:19;;;;;;;7.40;5.30;;;;;;;31.66;36.38;100559.75;5074981;28;20044;-71
2021/08/14 11:34:50;;;;;;;9.23;5.43;;;;;;;31.80;36.43;100555.84;5080615;28;20200;-71